Time;durP1;ratioP1;P1;durP2;ratioP2;P2;SDS_P1;SDS_P2;PMS_P1;PMS_P2;Temp;Humidity;BMP_temperature;BMP_pressure;BME280_temperature;BME280_humidity;BME280_pressure;Samples;Min_cycle;Max_cycle;Signal;HPM_P1;HPM_P2
2021/09/20 00:01:14;;;;;;;5.50;2.30;;;15.70;91.60;;;;;;5062890;28;20036;-60
2021/09/20 00:03:40;;;;;;;2.90;2.00;;;15.70;91.60;;;;;;5084255;28;20070;-60
2021/09/20 00:06:05;;;;;;;3.20;2.08;;;15.70;91.90;;;;;;5061952;28;20054;-60
2021/09/20 00:08:31;;;;;;;2.88;2.10;;;15.70;91.60;;;;;;5082636;28;20020;-61
2021/09/20 00:10:57;;;;;;;6.55;2.45;;;15.70;91.70;;;;;;5085901;28;20047;-60
2021/09/20 00:13:22;;;;;;;7.32;2.03;;;15.70;91.70;;;;;;5082349;28;20040;-60
2021/09/20 00:15:47;;;;;;;3.92;2.20;;;15.70;91.70;;;;;;5082165;28;20020;-60
2021/09/20 00:18:13;;;;;;;4.03;2.00;;;15.70;91.80;;;;;;5084528;28;20428;-60
2021/09/20 00:20:39;;;;;;;2.88;2.15;;;15.70;91.80;;;;;;5083200;28;20024;-60
2021/09/20 00:23:04;;;;;;;3.08;2.00;;;15.70;91.80;;;;;;5064781;28;20074;-60
2021/09/20 00:25:30;;;;;;;4.22;1.60;;;15.70;91.80;;;;;;5063826;28;20039;-60
2021/09/20 00:27:55;;;;;;;2.17;1.60;;;15.70;91.80;;;;;;5062014;28;20036;-60
2021/09/20 00:30:21;;;;;;;3.42;2.13;;;15.70;91.80;;;;;;5082718;28;20046;-60
2021/09/20 00:32:46;;;;;;;2.88;1.70;;;15.70;91.90;;;;;;5084619;28;20494;-60
2021/09/20 00:35:12;;;;;;;2.25;1.67;;;15.70;91.90;;;;;;5082206;28;20505;-60
2021/09/20 00:37:37;;;;;;;2.38;1.77;;;15.70;91.90;;;;;;5085255;28;20476;-59
2021/09/20 00:40:04;;;;;;;2.63;1.70;;;15.70;91.90;;;;;;5080295;28;20411;-60
2021/09/20 00:42:29;;;;;;;2.15;1.90;;;15.70;91.90;;;;;;5065443;28;20050;-60
2021/09/20 00:44:55;;;;;;;2.25;1.73;;;15.70;92.00;;;;;;5066589;28;20036;-59
2021/09/20 00:47:20;;;;;;;1.60;1.42;;;15.70;91.90;;;;;;5049515;28;20031;-60
2021/09/20 00:49:46;;;;;;;3.60;3.00;;;15.70;91.90;;;;;;5084578;28;20075;-60
2021/09/20 00:52:11;;;;;;;4.65;3.03;;;15.70;92.00;;;;;;5082865;28;20035;-61
2021/09/20 00:54:37;;;;;;;3.08;2.78;;;15.70;92.10;;;;;;5083442;28;20514;-60
2021/09/20 00:57:03;;;;;;;3.22;1.88;;;15.70;92.20;;;;;;5083625;28;20131;-60
2021/09/20 00:59:28;;;;;;;3.40;2.10;;;15.70;92.20;;;;;;5083203;28;20044;-60
2021/09/20 01:01:54;;;;;;;3.25;2.30;;;15.60;92.30;;;;;;5062759;28;20332;-60
2021/09/20 01:04:20;;;;;;;3.38;2.08;;;15.60;92.20;;;;;;5064384;28;20039;-59
2021/09/20 01:06:45;;;;;;;3.55;1.80;;;15.70;92.20;;;;;;5080949;28;20507;-59
2021/09/20 01:09:11;;;;;;;5.45;1.92;;;15.70;92.20;;;;;;5066288;28;20038;-60
2021/09/20 01:11:36;;;;;;;3.80;1.42;;;15.70;92.10;;;;;;5080103;28;20024;-61
2021/09/20 01:14:02;;;;;;;2.97;1.83;;;15.70;92.10;;;;;;5063863;28;20237;-59
2021/09/20 01:16:27;;;;;;;4.60;1.67;;;15.60;92.40;;;;;;5082709;28;20058;-60
2021/09/20 01:18:53;;;;;;;8.25;1.88;;;15.60;92.10;;;;;;5082493;28;20448;-60
2021/09/20 01:21:18;;;;;;;6.47;1.90;;;15.70;92.10;;;;;;5081736;28;20150;-60
2021/09/20 01:23:44;;;;;;;15.05;2.40;;;15.60;92.10;;;;;;5065270;28;20227;-60
2021/09/20 01:26:10;;;;;;;15.82;2.63;;;15.70;92.20;;;;;;5082567;28;20493;-60
2021/09/20 01:28:36;;;;;;;8.35;2.25;;;15.70;92.30;;;;;;5082011;28;20043;-60
2021/09/20 01:31:01;;;;;;;10.23;2.05;;;15.70;92.30;;;;;;5062563;28;20028;-60
2021/09/20 01:33:27;;;;;;;10.15;2.08;;;15.70;92.40;;;;;;5081753;28;20086;-59
2021/09/20 01:35:52;;;;;;;13.02;2.05;;;15.70;92.50;;;;;;5063919;28;20066;-60
2021/09/20 01:38:18;;;;;;;9.77;2.42;;;15.70;92.40;;;;;;5081364;28;20137;-61
2021/09/20 01:40:43;;;;;;;5.18;2.10;;;15.70;92.40;;;;;;5081970;28;20028;-60
2021/09/20 01:43:09;;;;;;;4.85;1.80;;;15.70;92.40;;;;;;5080391;28;20036;-60
2021/09/20 01:45:34;;;;;;;12.07;2.22;;;15.70;92.40;;;;;;5062576;28;20040;-60
2021/09/20 01:48:00;;;;;;;9.27;2.05;;;15.70;92.50;;;;;;5081877;28;20036;-61
2021/09/20 01:50:25;;;;;;;14.65;4.82;;;15.70;92.50;;;;;;5065570;28;20032;-59
2021/09/20 01:52:51;;;;;;;12.93;4.20;;;15.70;92.50;;;;;;5047879;28;20186;-60
2021/09/20 01:55:16;;;;;;;10.75;3.35;;;15.70;92.60;;;;;;5063325;28;20103;-60
2021/09/20 01:57:42;;;;;;;6.03;2.60;;;15.70;92.60;;;;;;5081645;28;20047;-60
2021/09/20 02:00:09;;;;;;;8.45;2.53;;;15.70;92.60;;;;;;5044961;28;20024;-60
2021/09/20 02:02:34;;;;;;;12.57;2.50;;;15.70;92.60;;;;;;5062717;28;20356;-59
2021/09/20 02:05:00;;;;;;;5.03;2.65;;;15.70;92.60;;;;;;5062975;28;20048;-60
2021/09/20 02:07:25;;;;;;;11.55;2.40;;;15.70;92.60;;;;;;5081679;28;20036;-60
2021/09/20 02:09:51;;;;;;;7.40;2.40;;;15.70;92.60;;;;;;5082779;28;20032;-60
2021/09/20 02:12:17;;;;;;;5.95;2.20;;;15.70;92.50;;;;;;5059945;28;20494;-59
2021/09/20 02:14:42;;;;;;;6.55;1.85;;;15.70;92.50;;;;;;5064912;28;20351;-60
2021/09/20 02:17:08;;;;;;;11.93;1.88;;;15.70;92.70;;;;;;5063137;28;20039;-60
2021/09/20 02:19:33;;;;;;;5.82;1.75;;;15.70;92.40;;;;;;5063237;28;20028;-60
2021/09/20 02:21:59;;;;;;;3.08;1.90;;;15.70;92.40;;;;;;5080477;28;20260;-60
2021/09/20 02:24:24;;;;;;;8.02;1.50;;;15.70;92.40;;;;;;5082129;28;20067;-60
2021/09/20 02:26:50;;;;;;;8.20;1.90;;;15.70;92.60;;;;;;5062548;28;20107;-60
2021/09/20 02:29:15;;;;;;;4.43;1.80;;;15.70;92.70;;;;;;5082564;28;20086;-60
2021/09/20 02:31:41;;;;;;;6.15;1.45;;;15.70;92.70;;;;;;5082079;28;20044;-60
2021/09/20 02:34:06;;;;;;;4.63;1.48;;;15.70;92.90;;;;;;5062893;28;20036;-60
2021/09/20 02:36:32;;;;;;;5.80;1.67;;;15.70;92.90;;;;;;5080366;28;20065;-60
2021/09/20 02:38:57;;;;;;;2.72;1.30;;;15.70;92.90;;;;;;5080348;28;20135;-61
2021/09/20 02:41:23;;;;;;;1.70;1.30;;;15.70;93.00;;;;;;5081625;28;20094;-60
2021/09/20 02:43:48;;;;;;;6.13;1.52;;;15.70;93.10;;;;;;5064402;28;20125;-61
2021/09/20 02:46:14;;;;;;;6.18;1.45;;;15.70;93.00;;;;;;5081655;28;20569;-60
2021/09/20 02:48:39;;;;;;;5.20;1.50;;;15.70;93.20;;;;;;5059316;28;20054;-60
2021/09/20 02:51:05;;;;;;;7.38;1.30;;;15.70;93.20;;;;;;5062045;28;20485;-61
2021/09/20 02:53:30;;;;;;;3.85;1.40;;;15.70;93.20;;;;;;5080565;28;20025;-59
2021/09/20 02:55:56;;;;;;;3.53;1.27;;;15.70;93.20;;;;;;5063379;28;20418;-60
2021/09/20 02:58:22;;;;;;;2.97;1.52;;;15.60;93.20;;;;;;5062290;28;20031;-60
2021/09/20 03:00:47;;;;;;;4.57;1.42;;;15.70;93.10;;;;;;5063772;28;20162;-59
2021/09/20 03:03:13;;;;;;;12.75;1.70;;;15.70;93.10;;;;;;5061792;28;20043;-60
2021/09/20 03:05:38;;;;;;;4.68;1.40;;;15.70;93.40;;;;;;5081027;28;20537;-60
2021/09/20 03:08:04;;;;;;;4.43;1.13;;;15.70;93.10;;;;;;5046586;28;20051;-60
2021/09/20 03:10:30;;;;;;;5.18;1.30;;;15.70;93.00;;;;;;5044610;28;20072;-60
2021/09/20 03:12:56;;;;;;;4.63;1.60;;;15.70;92.90;;;;;;5080399;28;20135;-60
2021/09/20 03:15:21;;;;;;;4.00;1.60;;;15.70;92.90;;;;;;5062778;28;20111;-60
2021/09/20 03:17:48;;;;;;;4.95;1.55;;;15.70;92.80;;;;;;5078778;28;20067;-60
2021/09/20 03:20:14;;;;;;;7.45;1.40;;;15.70;92.80;;;;;;5078587;28;20040;-61
2021/09/20 03:22:39;;;;;;;3.80;1.40;;;15.70;92.80;;;;;;5062038;28;20027;-59
2021/09/20 03:25:06;;;;;;;16.73;2.35;;;15.70;92.80;;;;;;5062081;28;20158;-60
2021/09/20 03:27:31;;;;;;;34.78;3.95;;;15.70;92.80;;;;;;5062075;28;20464;-60
2021/09/20 03:29:57;;;;;;;26.55;3.80;;;15.70;92.80;;;;;;5061683;28;20043;-60
2021/09/20 03:32:22;;;;;;;44.10;4.55;;;15.70;92.70;;;;;;5081559;28;20036;-60
2021/09/20 03:34:48;;;;;;;35.42;4.20;;;15.60;92.70;;;;;;5061285;28;20024;-60
2021/09/20 03:37:14;;;;;;;39.10;4.22;;;15.60;92.70;;;;;;5059479;28;20078;-60
2021/09/20 03:39:40;;;;;;;33.67;4.00;;;15.70;92.70;;;;;;5079022;28;20423;-60
2021/09/20 03:42:05;;;;;;;28.73;3.65;;;15.60;92.70;;;;;;5077884;28;20634;-60
2021/09/20 03:44:31;;;;;;;34.03;4.47;;;15.70;92.70;;;;;;5077327;28;20060;-60
2021/09/20 03:46:56;;;;;;;33.53;3.65;;;15.60;92.60;;;;;;5059599;28;20024;-60
2021/09/20 03:49:22;;;;;;;38.13;5.15;;;15.70;92.80;;;;;;5082229;28;20515;-60
2021/09/20 03:51:47;;;;;;;36.05;4.05;;;15.70;92.90;;;;;;5083276;28;20067;-60
2021/09/20 03:54:13;;;;;;;50.13;4.95;;;15.60;92.90;;;;;;5082922;28;20178;-60
2021/09/20 03:56:38;;;;;;;30.83;4.50;;;15.60;92.90;;;;;;5084648;28;20127;-61
2021/09/20 03:59:04;;;;;;;36.22;3.88;;;15.70;92.90;;;;;;5085270;28;20024;-60
2021/09/20 04:01:29;;;;;;;35.30;3.75;;;15.60;92.90;;;;;;5083706;28;20363;-61
2021/09/20 04:03:55;;;;;;;34.88;2.92;;;15.60;92.90;;;;;;5083680;28;20718;-60
2021/09/20 04:06:20;;;;;;;55.88;5.65;;;15.60;92.80;;;;;;5049132;28;20063;-60
2021/09/20 04:08:46;;;;;;;134.23;10.27;;;15.70;92.80;;;;;;5084663;28;20036;-60
2021/09/20 04:11:11;;;;;;;157.23;12.50;;;15.60;92.80;;;;;;5085168;28;20024;-61
2021/09/20 04:13:37;;;;;;;124.03;9.30;;;15.60;92.80;;;;;;5084557;28;20028;-60
2021/09/20 04:16:03;;;;;;;130.00;8.82;;;15.70;92.90;;;;;;5085123;28;20539;-59
2021/09/20 04:18:28;;;;;;;102.63;9.95;;;15.70;93.00;;;;;;5084959;28;20126;-61
2021/09/20 04:20:54;;;;;;;114.07;7.85;;;15.60;93.00;;;;;;5085437;28;20043;-60
2021/09/20 04:23:21;;;;;;;93.35;7.07;;;15.70;93.10;;;;;;5065621;28;20440;-60
2021/09/20 04:25:47;;;;;;;94.80;7.68;;;15.60;93.00;;;;;;5066453;28;20024;-61
2021/09/20 04:28:12;;;;;;;63.05;7.05;;;15.60;93.00;;;;;;5084224;28;20040;-59
2021/09/20 04:30:40;;;;;;;69.00;6.40;;;15.60;93.00;;;;;;5083627;28;20021;-60
2021/09/20 04:33:05;;;;;;;63.17;5.18;;;15.60;93.10;;;;;;5084317;28;20039;-59
2021/09/20 04:35:31;;;;;;;86.95;6.40;;;15.60;93.10;;;;;;5082554;28;20052;-60
2021/09/20 04:37:56;;;;;;;69.35;6.90;;;15.60;93.10;;;;;;5085045;28;20028;-60
2021/09/20 04:40:22;;;;;;;69.40;6.55;;;15.60;93.20;;;;;;5085842;28;20024;-60
2021/09/20 04:42:48;;;;;;;70.53;6.45;;;15.70;93.20;;;;;;5066475;28;20387;-60
2021/09/20 04:45:13;;;;;;;58.65;5.50;;;15.60;93.10;;;;;;5065238;28;20027;-60
2021/09/20 04:47:39;;;;;;;61.75;5.75;;;15.70;93.10;;;;;;5063339;28;20067;-59
2021/09/20 04:50:05;;;;;;;63.33;5.40;;;15.70;93.20;;;;;;5048650;28;20028;-60
2021/09/20 04:52:30;;;;;;;48.33;5.45;;;15.60;93.30;;;;;;5084698;28;20028;-60
2021/09/20 04:54:56;;;;;;;58.03;4.60;;;15.70;93.40;;;;;;5050288;28;20290;-60
2021/09/20 04:57:21;;;;;;;53.85;5.00;;;15.60;93.50;;;;;;5065781;28;20115;-60
2021/09/20 04:59:47;;;;;;;68.60;5.72;;;15.60;93.40;;;;;;5062299;28;20024;-60
2021/09/20 05:02:12;;;;;;;47.95;4.38;;;15.60;93.50;;;;;;5081234;28;20044;-61
2021/09/20 05:04:38;;;;;;;65.32;5.15;;;15.70;93.40;;;;;;5082288;28;20040;-60
2021/09/20 05:07:03;;;;;;;58.90;5.43;;;15.70;93.50;;;;;;5081836;28;20539;-60
2021/09/20 05:09:29;;;;;;;73.25;6.15;;;15.70;93.50;;;;;;5084492;28;21493;-61
2021/09/20 05:11:55;;;;;;;78.80;6.03;;;15.70;93.50;;;;;;5081140;28;20435;-60
2021/09/20 05:14:20;;;;;;;71.38;5.75;;;15.60;93.50;;;;;;5064134;28;20125;-59
2021/09/20 05:16:46;;;;;;;51.75;5.57;;;15.60;93.60;;;;;;5082576;28;20119;-60
2021/09/20 05:19:11;;;;;;;51.42;4.47;;;15.70;93.80;;;;;;5046876;28;20125;-60
2021/09/20 05:21:37;;;;;;;60.50;5.38;;;15.60;93.70;;;;;;5083834;28;20040;-60
2021/09/20 05:24:03;;;;;;;57.97;5.03;;;15.60;93.80;;;;;;5081204;28;20040;-60
2021/09/20 05:26:28;;;;;;;45.40;4.80;;;15.60;93.70;;;;;;5062326;28;20125;-60
2021/09/20 05:28:54;;;;;;;63.47;4.90;;;15.60;93.70;;;;;;5082451;28;20035;-59
2021/09/20 05:31:19;;;;;;;46.78;4.22;;;15.60;93.70;;;;;;5082779;28;20043;-60
2021/09/20 05:33:45;;;;;;;54.45;4.68;;;15.60;93.70;;;;;;5082902;28;20203;-60
2021/09/20 05:36:10;;;;;;;47.40;4.32;;;15.60;93.70;;;;;;5081941;28;20079;-59
2021/09/20 05:38:36;;;;;;;34.67;3.78;;;15.60;93.70;;;;;;5079724;28;20561;-60
2021/09/20 05:41:01;;;;;;;36.25;4.13;;;15.60;93.70;;;;;;5081496;28;20127;-61
2021/09/20 05:43:27;;;;;;;28.50;3.00;;;15.70;93.70;;;;;;5046398;28;20055;-60
2021/09/20 05:45:52;;;;;;;33.08;4.18;;;15.60;93.60;;;;;;5081147;28;20136;-60
2021/09/20 05:48:20;;;;;;;22.13;3.17;;;15.60;93.60;;;;;;5062361;28;20062;-60
2021/09/20 05:50:46;;;;;;;26.08;3.00;;;15.60;93.60;;;;;;5078272;28;20024;-60
2021/09/20 05:53:12;;;;;;;27.52;3.30;;;15.60;93.60;;;;;;5063391;28;20043;-60
2021/09/20 05:55:37;;;;;;;19.30;2.90;;;15.60;93.60;;;;;;5078750;28;20081;-60
2021/09/20 05:58:03;;;;;;;28.30;3.45;;;15.60;93.60;;;;;;5075117;28;20142;-60
2021/09/20 06:00:29;;;;;;;21.30;3.13;;;15.60;93.60;;;;;;5079173;28;20432;-60
2021/09/20 06:02:54;;;;;;;24.20;2.92;;;15.60;93.60;;;;;;5076295;28;20027;-60
2021/09/20 06:05:20;;;;;;;19.58;2.75;;;15.60;93.60;;;;;;5078326;28;20050;-61
2021/09/20 06:07:46;;;;;;;27.13;2.95;;;15.60;93.60;;;;;;5081282;28;20032;-60
2021/09/20 06:10:11;;;;;;;17.88;3.28;;;15.60;93.50;;;;;;5082958;28;20133;-60
2021/09/20 06:12:37;;;;;;;19.10;2.85;;;15.60;93.50;;;;;;5083529;28;20039;-60
2021/09/20 06:15:04;;;;;;;19.83;2.97;;;15.60;93.50;;;;;;5063368;28;20034;-60
2021/09/20 06:17:30;;;;;;;23.75;2.22;;;15.70;93.60;;;;;;5051711;28;20505;-59
2021/09/20 06:19:56;;;;;;;14.57;2.30;;;15.60;93.50;;;;;;5071990;28;20074;-60
2021/09/20 06:22:21;;;;;;;27.02;3.17;;;15.60;93.60;;;;;;5038335;28;20123;-62
2021/09/20 06:24:47;;;;;;;38.53;3.30;;;15.70;93.50;;;;;;5076341;28;20047;-60
2021/09/20 06:27:12;;;;;;;25.63;3.17;;;15.70;93.50;;;;;;5073932;28;20028;-60
2021/09/20 06:29:38;;;;;;;23.58;3.40;;;15.70;93.50;;;;;;5058928;28;20039;-60
2021/09/20 06:32:03;;;;;;;58.42;8.38;;;15.70;93.60;;;;;;5075487;28;20044;-59
2021/09/20 06:34:29;;;;;;;33.03;5.65;;;15.70;93.60;;;;;;5058453;28;20052;-60
2021/09/20 06:36:54;;;;;;;57.55;5.57;;;15.70;93.90;;;;;;5079823;28;20032;-60
2021/09/20 06:39:20;;;;;;;57.50;5.03;;;15.70;94.00;;;;;;5044147;28;20051;-60
2021/09/20 06:41:45;;;;;;;137.55;10.02;;;15.80;94.00;;;;;;5083224;28;20239;-59
2021/09/20 06:44:11;;;;;;;170.50;12.27;;;15.70;94.00;;;;;;5079750;28;20475;-60
2021/09/20 06:46:37;;;;;;;68.05;6.25;;;15.80;94.10;;;;;;5078160;28;20129;-60
2021/09/20 06:49:03;;;;;;;110.28;8.98;;;15.80;94.10;;;;;;5078296;28;20028;-62
2021/09/20 06:51:29;;;;;;;238.75;16.75;;;15.80;94.10;;;;;;5061642;28;20023;-60
2021/09/20 06:53:55;;;;;;;92.70;9.13;;;15.80;94.00;;;;;;5079637;28;20355;-60
2021/09/20 06:56:22;;;;;;;320.63;26.13;;;15.80;93.90;;;;;;5075499;28;20455;-60
2021/09/20 06:58:48;;;;;;;94.13;7.55;;;15.80;93.80;;;;;;5076715;28;20068;-59
2021/09/20 07:01:14;;;;;;;70.40;6.82;;;15.80;93.90;;;;;;5060761;28;20111;-61
2021/09/20 07:03:40;;;;;;;32.60;5.07;;;15.80;93.80;;;;;;5062062;28;20511;-60
2021/09/20 07:06:06;;;;;;;37.45;3.80;;;15.80;93.90;;;;;;5062846;28;20047;-60
2021/09/20 07:08:32;;;;;;;31.33;4.10;;;15.80;94.00;;;;;;5077755;28;20030;-61
2021/09/20 07:10:57;;;;;;;36.45;4.25;;;15.80;94.20;;;;;;5060862;28;20036;-59
2021/09/20 07:13:23;;;;;;;44.70;3.88;;;15.80;94.50;;;;;;5076745;28;20226;-60
2021/09/20 07:15:48;;;;;;;29.45;5.05;;;15.70;94.60;;;;;;5077989;28;20224;-60
2021/09/20 07:18:14;;;;;;;42.92;4.35;;;15.70;95.00;;;;;;5041279;28;20141;-60
2021/09/20 07:20:39;;;;;;;31.73;4.93;;;15.70;94.80;;;;;;5058559;28;20221;-59
2021/09/20 07:23:05;;;;;;;41.85;4.90;;;15.70;95.20;;;;;;5077174;28;20111;-60
2021/09/20 07:25:30;;;;;;;27.50;4.57;;;15.70;95.10;;;;;;5058165;28;20055;-60
2021/09/20 07:27:56;;;;;;;29.02;4.25;;;15.70;95.20;;;;;;5061157;28;20107;-60
2021/09/20 07:30:21;;;;;;;83.53;7.28;;;15.70;95.30;;;;;;5066558;28;20035;-60
2021/09/20 07:32:48;;;;;;;47.45;5.65;;;15.70;95.30;;;;;;5084868;28;20027;-60
2021/09/20 07:35:16;;;;;;;42.97;4.80;;;15.70;95.20;;;;;;5063607;28;20024;-60
2021/09/20 07:37:45;;;;;;;51.17;5.95;;;15.70;95.50;;;;;;5062382;28;20477;-60
2021/09/20 07:40:12;;;;;;;41.50;4.80;;;15.70;95.50;;;;;;5062915;28;20270;-60
2021/09/20 07:42:37;;;;;;;62.70;6.45;;;15.70;95.40;;;;;;5084198;28;20415;-60
2021/09/20 07:45:03;;;;;;;48.00;5.78;;;15.80;95.40;;;;;;5067179;28;20036;-60
2021/09/20 07:47:29;;;;;;;51.38;5.45;;;15.80;95.40;;;;;;5081714;28;20039;-60
2021/09/20 07:49:54;;;;;;;35.90;4.10;;;15.80;95.40;;;;;;5064108;28;20276;-60
2021/09/20 07:52:20;;;;;;;50.88;4.68;;;15.80;95.50;;;;;;5081499;28;20032;-60
2021/09/20 07:54:45;;;;;;;29.98;4.80;;;15.80;95.40;;;;;;5060497;28;20130;-62
2021/09/20 07:57:11;;;;;;;45.25;6.53;;;15.80;95.40;;;;;;5065233;28;20511;-60
2021/09/20 07:59:36;;;;;;;87.03;10.68;;;15.80;95.50;;;;;;5063251;28;20083;-60
2021/09/20 08:02:02;;;;;;;35.10;5.35;;;15.80;95.50;;;;;;5059696;28;20049;-60
2021/09/20 08:04:28;;;;;;;38.15;4.80;;;15.90;95.40;;;;;;5074159;28;25693;-60
2021/09/20 08:06:53;;;;;;;61.42;7.07;;;15.80;95.30;;;;;;5081156;28;20030;-60
2021/09/20 08:09:19;;;;;;;65.00;6.60;;;15.90;95.20;;;;;;5063600;28;20111;-60
2021/09/20 08:11:45;;;;;;;36.28;4.80;;;15.90;95.10;;;;;;5077522;28;20984;-60
2021/09/20 08:14:10;;;;;;;30.00;4.25;;;15.90;95.10;;;;;;5081725;28;20067;-59
2021/09/20 08:16:36;;;;;;;22.63;4.18;;;15.90;95.00;;;;;;5079740;28;20394;-60
2021/09/20 08:19:01;;;;;;;100.68;10.70;;;15.90;95.00;;;;;;5081423;28;20578;-60
2021/09/20 08:21:27;;;;;;;100.70;9.98;;;15.90;95.10;;;;;;5082832;28;20024;-60
2021/09/20 08:23:52;;;;;;;63.55;6.55;;;15.90;95.20;;;;;;5082200;28;20044;-60
2021/09/20 08:26:18;;;;;;;51.42;6.20;;;15.90;95.20;;;;;;5063986;28;20046;-60
2021/09/20 08:28:43;;;;;;;46.20;5.95;;;16.00;95.30;;;;;;5075172;28;20143;-59
2021/09/20 08:31:09;;;;;;;54.90;6.53;;;15.90;95.20;;;;;;5062357;28;20036;-60
2021/09/20 08:33:34;;;;;;;50.75;7.10;;;16.00;95.20;;;;;;5076612;28;22034;-60
2021/09/20 08:36:00;;;;;;;53.90;7.38;;;16.00;95.20;;;;;;5060602;28;20070;-59
2021/09/20 08:38:25;;;;;;;84.75;8.60;;;16.10;95.20;;;;;;5080020;28;20479;-60
2021/09/20 08:40:51;;;;;;;59.20;7.30;;;16.00;95.30;;;;;;5062909;28;20404;-60
2021/09/20 08:43:17;;;;;;;43.95;6.15;;;16.10;95.40;;;;;;5078371;28;20083;-59
2021/09/20 08:45:42;;;;;;;49.53;7.03;;;16.10;95.40;;;;;;5056911;28;20467;-59
2021/09/20 08:48:08;;;;;;;73.55;8.80;;;16.10;95.30;;;;;;5074787;28;20101;-60
2021/09/20 08:50:36;;;;;;;57.15;6.95;;;16.10;95.20;;;;;;5054939;28;20068;-61
2021/09/20 08:53:03;;;;;;;53.63;7.03;;;16.10;95.20;;;;;;5079621;28;20020;-59
2021/09/20 08:55:29;;;;;;;55.53;5.47;;;16.20;95.30;;;;;;5076979;28;20110;-61
2021/09/20 08:57:54;;;;;;;42.05;6.32;;;16.10;95.30;;;;;;5058091;28;20734;-59
2021/09/20 09:00:20;;;;;;;53.20;6.53;;;16.20;95.20;;;;;;5054340;28;20040;-60
2021/09/20 09:02:45;;;;;;;51.75;6.03;;;16.20;95.20;;;;;;5025164;28;20496;-60
2021/09/20 09:05:27;;;;;;;50.08;6.90;;;16.20;95.00;;;;;;5041255;28;21231;-60
2021/09/20 09:08:03;;;;;;;49.22;6.32;;;16.20;94.90;;;;;;5052868;28;20106;-60
2021/09/20 09:10:32;;;;;;;42.25;7.18;;;16.20;94.70;;;;;;5017383;28;20373;-60
2021/09/20 09:12:59;;;;;;;87.95;9.30;;;16.20;94.70;;;;;;5026622;28;20024;-61
2021/09/20 09:15:25;;;;;;;127.10;11.57;;;16.30;94.70;;;;;;5026372;28;20024;-61
2021/09/20 09:17:53;;;;;;;47.65;7.38;;;16.30;94.90;;;;;;5056151;28;20031;-60
2021/09/20 09:20:24;;;;;;;72.53;8.60;;;16.30;94.60;;;;;;5038753;28;20099;-60
2021/09/20 09:23:06;;;;;;;83.70;9.98;;;16.40;94.50;;;;;;5057830;28;20044;-59
2021/09/20 09:25:43;;;;;;;74.10;8.07;;;16.40;94.50;;;;;;5013497;28;20045;-59
2021/09/20 09:28:23;;;;;;;66.38;8.00;;;16.40;94.60;;;;;;5032739;28;20117;-60
2021/09/20 09:31:00;;;;;;;64.65;7.43;;;16.40;94.50;;;;;;5018264;28;20025;-61
2021/09/20 09:33:38;;;;;;;72.28;7.88;;;16.50;94.40;;;;;;5060913;28;20678;-60
2021/09/20 09:36:04;;;;;;;64.85;8.70;;;16.50;94.40;;;;;;5041148;28;20595;-59
2021/09/20 09:38:29;;;;;;;59.45;7.53;;;16.60;94.20;;;;;;5040094;28;20035;-60
2021/09/20 09:41:00;;;;;;;63.42;7.47;;;16.60;94.20;;;;;;5042472;28;20051;-60
2021/09/20 09:43:30;;;;;;;44.15;6.15;;;16.60;94.20;;;;;;5043853;28;20032;-60
2021/09/20 09:45:57;;;;;;;77.57;7.85;;;16.60;94.10;;;;;;5043860;28;20072;-60
2021/09/20 09:48:24;;;;;;;41.75;6.40;;;16.70;94.10;;;;;;5057649;28;20041;-60
2021/09/20 09:50:54;;;;;;;61.78;7.20;;;16.70;94.10;;;;;;5042947;28;20025;-60
2021/09/20 09:53:32;;;;;;;61.28;7.00;;;16.70;94.10;;;;;;5056308;28;20095;-60
2021/09/20 09:56:18;;;;;;;66.75;7.55;;;16.70;94.20;;;;;;5044752;28;20852;-60
2021/09/20 09:58:52;;;;;;;85.32;8.98;;;16.80;94.10;;;;;;5043017;28;20055;-59
2021/09/20 10:01:20;;;;;;;54.20;7.03;;;16.80;94.00;;;;;;5055820;28;20424;-60
2021/09/20 10:04:13;;;;;;;64.05;7.25;;;16.80;93.80;;;;;;5038972;28;20040;-60
2021/09/20 10:06:44;;;;;;;64.80;6.95;;;16.80;93.60;;;;;;5040462;28;20775;-60
2021/09/20 10:09:29;;;;;;;55.35;7.25;;;16.80;93.50;;;;;;5057599;28;20032;-60
2021/09/20 10:11:58;;;;;;;81.57;7.45;;;16.90;93.60;;;;;;5069520;28;20458;-60
2021/09/20 10:14:25;;;;;;;61.83;6.78;;;16.90;93.60;;;;;;5038661;28;20052;-60
2021/09/20 10:16:52;;;;;;;42.17;6.57;;;16.90;93.50;;;;;;5039099;28;20363;-60
2021/09/20 10:19:19;;;;;;;66.07;8.13;;;16.90;93.50;;;;;;5039699;28;20043;-60
2021/09/20 10:21:44;;;;;;;67.45;7.15;;;16.90;93.50;;;;;;5061203;28;20029;-60
2021/09/20 10:24:10;;;;;;;61.67;7.40;;;17.00;93.40;;;;;;5063027;28;20044;-60
2021/09/20 10:26:35;;;;;;;54.55;7.97;;;17.00;93.30;;;;;;5058827;28;20047;-60
2021/09/20 10:29:02;;;;;;;90.45;9.40;;;17.00;93.30;;;;;;5059235;28;20044;-60
2021/09/20 10:31:29;;;;;;;91.25;9.73;;;17.00;93.20;;;;;;5022058;28;20029;-60
2021/09/20 10:34:24;;;;;;;76.75;8.63;;;17.10;93.30;;;;;;5060698;28;20072;-60
2021/09/20 10:36:51;;;;;;;72.07;8.20;;;17.10;93.30;;;;;;5055579;28;20058;-60
2021/09/20 10:39:17;;;;;;;77.53;8.20;;;17.10;93.20;;;;;;5046258;28;20025;-59
2021/09/20 10:41:43;;;;;;;54.22;6.95;;;17.10;93.20;;;;;;5025541;28;20024;-60
2021/09/20 10:44:10;;;;;;;66.00;7.47;;;17.10;93.20;;;;;;5050024;28;20102;-60
2021/09/20 10:46:42;;;;;;;87.88;9.57;;;17.10;93.10;;;;;;5043486;28;20052;-60
2021/09/20 10:49:18;;;;;;;71.35;7.53;;;17.20;93.20;;;;;;5048851;28;20029;-62
2021/09/20 10:51:45;;;;;;;65.05;8.15;;;17.20;93.30;;;;;;5029209;28;20016;-61
2021/09/20 10:54:29;;;;;;;63.67;8.50;;;17.20;93.20;;;;;;5025357;28;20095;-60
2021/09/20 10:57:18;;;;;;;90.53;10.30;;;17.20;93.10;;;;;;5062335;28;20952;-60
2021/09/20 10:59:43;;;;;;;88.45;9.48;;;17.20;93.20;;;;;;5057906;28;20449;-59
2021/09/20 11:02:17;;;;;;;98.43;10.80;;;17.20;93.10;;;;;;5049447;28;20040;-63
2021/09/20 11:04:43;;;;;;;181.82;16.92;;;17.20;92.90;;;;;;5043555;28;20032;-59
2021/09/20 11:07:17;;;;;;;189.85;19.63;;;17.20;92.90;;;;;;5043634;28;20048;-62
2021/09/20 11:10:06;;;;;;;108.93;11.20;;;17.30;93.00;;;;;;5043544;28;20036;-61
2021/09/20 11:12:37;;;;;;;128.40;13.93;;;17.30;93.10;;;;;;5026879;28;20029;-60
2021/09/20 11:15:02;;;;;;;156.43;14.02;;;17.30;93.10;;;;;;5041044;28;20064;-60
2021/09/20 11:17:40;;;;;;;129.18;12.93;;;17.30;93.20;;;;;;5060103;28;20067;-60
2021/09/20 11:20:26;;;;;;;122.43;12.30;;;17.30;93.00;;;;;;5049599;28;20684;-61
2021/09/20 11:23:17;;;;;;;134.40;13.32;;;17.30;92.80;;;;;;5030681;28;20046;-60
2021/09/20 11:26:22;;;;;;;128.02;11.05;;;17.30;92.80;;;;;;5062126;28;20039;-60
2021/09/20 11:28:52;;;;;;;140.00;15.38;;;17.40;93.20;;;;;;4980587;28;20093;-60
2021/09/20 11:31:18;;;;;;;129.80;13.45;;;17.30;93.00;;;;;;4994454;28;20088;-62
2021/09/20 11:33:45;;;;;;;201.25;17.13;;;17.40;93.30;;;;;;5042020;28;20123;-60
2021/09/20 11:36:18;;;;;;;179.20;15.32;;;17.40;93.00;;;;;;5075993;28;20452;-61
2021/09/20 11:38:43;;;;;;;158.95;16.75;;;17.40;92.90;;;;;;5044475;28;20619;-60
2021/09/20 11:41:20;;;;;;;173.00;16.10;;;17.40;92.90;;;;;;5058937;28;20047;-60
2021/09/20 11:43:45;;;;;;;139.43;12.43;;;17.40;92.70;;;;;;5044302;28;20456;-60
2021/09/20 11:46:11;;;;;;;133.45;14.70;;;17.40;92.60;;;;;;5055879;28;20047;-60
2021/09/20 11:48:36;;;;;;;111.50;11.77;;;17.40;92.60;;;;;;5076429;28;20052;-59
2021/09/20 11:51:02;;;;;;;117.38;12.48;;;17.40;92.50;;;;;;5055778;28;20055;-60
2021/09/20 11:53:27;;;;;;;143.77;15.88;;;17.40;92.50;;;;;;5058446;28;20107;-61
2021/09/20 11:55:53;;;;;;;76.35;10.32;;;17.40;92.60;;;;;;5057464;28;20107;-60
2021/09/20 11:58:18;;;;;;;99.15;12.93;;;17.40;92.50;;;;;;5059202;28;20407;-60
2021/09/20 12:00:47;;;;;;;128.30;12.82;;;17.40;92.50;;;;;;5044146;28;20133;-60
2021/09/20 12:03:18;;;;;;;126.25;11.57;;;17.40;92.50;;;;;;5044096;28;20074;-61
2021/09/20 12:05:47;;;;;;;76.47;9.68;;;17.40;92.80;;;;;;5063582;28;20017;-60
2021/09/20 12:08:17;;;;;;;83.72;9.20;;;17.40;92.40;;;;;;5063522;28;20028;-60
2021/09/20 12:10:44;;;;;;;93.60;9.48;;;17.50;92.30;;;;;;5058922;28;20125;-60
2021/09/20 12:13:12;;;;;;;91.60;10.10;;;17.50;92.30;;;;;;5076934;28;20019;-60
2021/09/20 12:15:39;;;;;;;86.93;8.90;;;17.50;92.10;;;;;;5061629;28;20510;-60
2021/09/20 12:18:14;;;;;;;92.28;10.05;;;17.50;92.00;;;;;;5056117;28;20028;-60
2021/09/20 12:20:44;;;;;;;;;;;17.50;92.00;;;;;;5080444;28;20471;-60
2021/09/20 12:23:09;;;;;;;86.13;9.13;;;17.50;92.00;;;;;;5074089;28;19982;-61
2021/09/20 12:25:43;;;;;;;85.35;9.30;;;17.50;92.10;;;;;;5081998;28;20115;-60
2021/09/20 12:28:39;;;;;;;65.30;7.05;;;17.50;92.00;;;;;;5069406;28;20111;-61
2021/09/20 12:31:04;;;;;;;66.05;8.02;;;17.50;91.80;;;;;;5022062;28;20437;-60
2021/09/20 12:33:51;;;;;;;68.72;8.73;;;17.50;91.80;;;;;;5065933;28;20048;-60
2021/09/20 12:36:40;;;;;;;60.40;8.27;;;17.60;91.80;;;;;;5057150;28;20079;-60
2021/09/20 12:39:12;;;;;;;48.85;6.68;;;17.60;91.60;;;;;;5060642;28;20039;-61